createdAt,value
2023-04-02T00:00:59.940Z,77.01
2023-04-02T00:03:46.049Z,77.18
2023-04-02T00:06:34.364Z,77.04
2023-04-02T00:09:31.302Z,77.25
2023-04-02T00:12:16.633Z,78.54
2023-04-02T00:14:59.200Z,78.07
2023-04-02T00:17:29.398Z,78.14
2023-04-02T00:20:07.689Z,78.34
2023-04-02T00:22:46.567Z,79.18
2023-04-02T00:25:16.925Z,79.10
2023-04-02T00:27:47.907Z,79.14
2023-04-02T00:30:18.459Z,79.20
2023-04-02T00:32:49.407Z,79.20
2023-04-02T00:35:28.500Z,79.80
2023-04-02T00:37:59.173Z,78.53
2023-04-02T00:40:32.446Z,79.31
2023-04-02T00:43:05.947Z,78.61
2023-04-02T00:45:40.018Z,78.76
2023-04-02T00:49:00.882Z,79.25
2023-04-02T00:51:39.006Z,80.33
2023-04-02T00:54:20.033Z,80.72
2023-04-02T00:56:53.829Z,81.75
2023-04-02T00:59:35.930Z,81.82
2023-04-02T01:02:21.034Z,82.00
2023-04-02T01:05:05.449Z,82.39
2023-04-02T01:07:57.158Z,82.32
2023-04-02T01:11:03.904Z,81.71
2023-04-02T01:13:58.914Z,82.20
2023-04-02T01:16:31.851Z,82.72
2023-04-02T01:19:43.568Z,83.14
2023-04-02T01:22:59.753Z,83.23
2023-04-02T01:25:38.179Z,84.37
2023-04-02T01:28:54.206Z,83.88
2023-04-02T01:31:25.015Z,83.82
2023-04-02T01:33:55.375Z,83.80
2023-04-02T01:37:02.107Z,84.10
2023-04-02T01:40:01.828Z,85.57
2023-04-02T01:42:57.822Z,85.06
2023-04-02T01:45:28.642Z,85.13
2023-04-02T01:47:58.981Z,84.87
2023-04-02T01:50:34.532Z,86.01
2023-04-02T01:53:09.760Z,85.52
2023-04-02T01:56:01.472Z,85.83
2023-04-02T01:58:34.709Z,85.72
2023-04-02T02:01:23.053Z,85.69
2023-04-02T02:03:55.698Z,86.19
2023-04-02T02:06:26.191Z,85.93
2023-04-02T02:09:04.980Z,86.74
2023-04-02T02:11:37.720Z,86.87
2023-04-02T02:14:16.007Z,86.43
2023-04-02T02:16:48.665Z,87.14
2023-04-02T02:19:39.968Z,86.33
2023-04-02T02:22:22.769Z,84.35
2023-04-02T02:24:52.605Z,85.04
2023-04-02T02:27:25.486Z,86.92
2023-04-02T02:30:12.017Z,87.30
2023-04-02T02:32:55.428Z,87.36
2023-04-02T02:35:54.594Z,86.59
2023-04-02T02:38:54.381Z,86.45
2023-04-02T02:42:03.273Z,87.73
2023-04-02T02:44:45.219Z,87.06
2023-04-02T02:47:40.787Z,87.41
2023-04-02T02:50:25.702Z,86.86
2023-04-02T02:53:00.878Z,87.15
2023-04-02T02:55:38.930Z,87.62
2023-04-02T02:58:28.447Z,88.10
2023-04-02T03:01:31.327Z,87.80
2023-04-02T03:04:05.980Z,87.89
2023-04-02T03:06:37.906Z,87.25
2023-04-02T03:09:33.139Z,87.37
2023-04-02T03:12:28.790Z,88.00
2023-04-02T03:14:58.957Z,87.68
2023-04-02T03:17:34.261Z,87.73
2023-04-02T03:20:15.838Z,87.86
2023-04-02T03:22:57.999Z,88.03
2023-04-02T03:26:06.217Z,88.04
2023-04-02T03:28:44.345Z,88.02
2023-04-02T03:31:27.643Z,87.83
2023-04-02T03:34:15.566Z,87.82
2023-04-02T03:36:54.674Z,87.93
2023-04-02T03:39:55.721Z,88.17
2023-04-02T03:42:28.352Z,88.02
2023-04-02T03:45:32.730Z,88.48
2023-04-02T03:48:08.854Z,88.71
2023-04-02T03:50:57.813Z,89.15
2023-04-02T03:53:30.632Z,88.74
2023-04-02T03:56:03.512Z,88.84
2023-04-02T03:58:53.576Z,89.00
2023-04-02T04:01:33.060Z,88.94
2023-04-02T04:04:15.917Z,87.78
2023-04-02T04:06:48.762Z,88.67
2023-04-02T04:09:35.514Z,88.76
2023-04-02T04:12:34.511Z,88.62
2023-04-02T04:15:16.904Z,87.19
2023-04-02T04:18:03.470Z,88.62
2023-04-02T04:20:49.243Z,88.16
2023-04-02T04:23:37.225Z,88.87
2023-04-02T04:26:25.830Z,88.73
2023-04-02T04:29:33.922Z,88.96
2023-04-02T04:32:51.763Z,88.41
2023-04-02T04:35:32.662Z,87.53
2023-04-02T04:38:08.919Z,87.91
2023-04-02T04:40:55.163Z,88.94
2023-04-02T04:43:56.515Z,88.37
2023-04-02T04:46:41.928Z,87.28
2023-04-02T04:49:43.249Z,87.73
2023-04-02T04:52:46.076Z,89.26
2023-04-02T04:55:36.702Z,88.79
2023-04-02T04:58:49.970Z,89.09
2023-04-02T05:01:49.616Z,89.20
2023-04-02T05:04:41.067Z,87.46
2023-04-02T05:07:18.863Z,88.37
2023-04-02T05:09:57.988Z,88.88
2023-04-02T05:12:43.841Z,89.83
2023-04-02T05:15:50.368Z,88.62
2023-04-02T05:19:01.188Z,88.58
2023-04-02T05:21:46.481Z,86.42
2023-04-02T05:24:40.568Z,88.23
2023-04-02T05:27:42.376Z,88.71
2023-04-02T05:30:54.126Z,88.70
2023-04-02T05:33:30.013Z,89.10
2023-04-02T05:36:10.087Z,89.50
2023-04-02T05:38:50.382Z,88.82
2023-04-02T05:41:41.205Z,89.34
2023-04-02T05:44:34.091Z,89.21
2023-04-02T05:47:32.245Z,89.14
2023-04-02T05:50:16.083Z,89.66
2023-04-02T05:52:58.718Z,89.20
2023-04-02T05:55:44.931Z,89.30
2023-04-02T05:58:36.952Z,89.28
2023-04-02T06:01:30.795Z,88.89
2023-04-02T06:04:22.758Z,88.98
2023-04-02T06:07:05.737Z,89.42
2023-04-02T06:10:08.112Z,89.65
2023-04-02T06:12:45.790Z,89.87
2023-04-02T06:15:24.575Z,90.08
2023-04-02T06:18:07.024Z,89.52
2023-04-02T06:20:38.214Z,90.18
2023-04-02T06:23:47.831Z,89.61
2023-04-02T06:26:39.402Z,89.83
2023-04-02T06:29:28.133Z,90.05
2023-04-02T06:32:03.514Z,90.19
2023-04-02T06:34:34.805Z,90.40
2023-04-02T06:37:30.961Z,90.11
2023-04-02T06:40:22.818Z,89.88
2023-04-02T06:43:00.826Z,90.23
2023-04-02T06:45:59.113Z,89.89
2023-04-02T06:48:37.124Z,91.08
2023-04-02T06:51:08.893Z,90.81
2023-04-02T06:53:44.426Z,91.65
2023-04-02T06:57:02.281Z,92.11
2023-04-02T06:59:39.206Z,93.89
2023-04-02T07:02:32.082Z,92.73
2023-04-02T07:05:10.322Z,92.72
2023-04-02T07:07:45.610Z,92.89
2023-04-02T07:10:16.726Z,92.42
2023-04-02T07:12:46.733Z,91.68
2023-04-02T07:15:25.291Z,91.84
2023-04-02T07:18:00.467Z,91.29
2023-04-02T07:20:40.120Z,91.59
2023-04-02T07:23:14.818Z,91.68
2023-04-02T07:25:46.075Z,91.56
2023-04-02T07:28:16.926Z,91.41
2023-04-02T07:30:47.925Z,90.60
2023-04-02T07:33:20.720Z,91.14
2023-04-02T07:35:51.616Z,92.07
2023-04-02T07:38:22.002Z,92.34
2023-04-02T07:40:52.248Z,92.12
2023-04-02T07:43:23.098Z,91.96
2023-04-02T07:45:53.804Z,90.87
2023-04-02T07:48:24.562Z,92.48
2023-04-02T07:50:54.744Z,92.23
2023-04-02T07:53:33.778Z,91.87
2023-04-02T07:56:05.633Z,92.16
2023-04-02T07:58:36.517Z,92.08
2023-04-02T08:01:06.735Z,92.25
2023-04-02T08:03:36.944Z,91.96
2023-04-02T08:06:07.944Z,92.94
2023-04-02T08:08:38.269Z,92.34
2023-04-02T08:11:08.864Z,92.17
2023-04-02T08:13:40.078Z,91.91
2023-04-02T08:16:11.289Z,93.53
2023-04-02T08:18:41.860Z,92.62
2023-04-02T08:21:14.159Z,93.38
2023-04-02T08:23:45.526Z,92.75
2023-04-02T08:26:20.052Z,93.15
2023-04-02T08:28:50.346Z,93.19
2023-04-02T08:31:20.550Z,93.69
2023-04-02T08:33:50.726Z,93.20
2023-04-02T08:36:21.695Z,93.43
2023-04-02T08:38:52.449Z,94.27
2023-04-02T08:41:28.923Z,94.20
2023-04-02T08:44:25.343Z,93.74
2023-04-02T08:47:04.552Z,93.28
2023-04-02T08:49:38.900Z,93.26
2023-04-02T08:52:21.652Z,93.70
2023-04-02T08:54:52.311Z,93.51
2023-04-02T08:57:41.044Z,93.20
2023-04-02T09:00:17.586Z,94.24
2023-04-02T09:02:59.308Z,94.09
2023-04-02T09:05:35.973Z,93.29
2023-04-02T09:08:09.129Z,92.88
2023-04-02T09:11:12.002Z,93.17
2023-04-02T09:13:47.843Z,92.98
2023-04-02T09:16:23.710Z,93.18
2023-04-02T09:18:55.653Z,93.05
2023-04-02T09:22:05.357Z,93.08
2023-04-02T09:24:36.637Z,93.56
2023-04-02T09:27:16.326Z,94.09
2023-04-02T09:29:48.650Z,93.92
2023-04-02T09:32:21.616Z,93.15
2023-04-02T09:34:52.251Z,93.69
2023-04-02T09:37:27.155Z,93.85
2023-04-02T09:40:18.238Z,93.48
2023-04-02T09:42:48.588Z,93.40
2023-04-02T09:45:26.651Z,93.55
2023-04-02T09:47:59.213Z,93.26
2023-04-02T09:50:33.303Z,93.45
2023-04-02T09:53:29.077Z,93.24
2023-04-02T09:56:25.656Z,93.27
2023-04-02T09:59:07.365Z,93.71
2023-04-02T10:01:43.796Z,93.32
2023-04-02T10:04:32.643Z,93.08
2023-04-02T10:07:02.957Z,93.85
2023-04-02T10:09:38.481Z,93.61
2023-04-02T10:12:13.822Z,93.47
2023-04-02T10:14:48.642Z,92.92
2023-04-02T10:17:30.441Z,94.17
2023-04-02T10:20:25.050Z,94.92
2023-04-02T10:22:55.227Z,93.37
2023-04-02T10:25:29.511Z,93.68
2023-04-02T10:28:23.894Z,93.05
2023-04-02T10:31:07.678Z,91.22
2023-04-02T10:33:39.673Z,91.48
2023-04-02T10:36:46.437Z,91.89
2023-04-02T10:39:47.524Z,90.75
2023-04-02T10:42:32.464Z,90.39
2023-04-02T10:45:23.120Z,90.98
2023-04-02T10:48:02.794Z,91.07
2023-04-02T10:50:46.964Z,91.34
2023-04-02T10:53:20.609Z,89.65
2023-04-02T10:55:59.718Z,89.54
2023-04-02T10:58:32.990Z,90.20
2023-04-02T11:01:09.565Z,89.55
2023-04-02T11:03:45.928Z,88.77
2023-04-02T11:06:51.779Z,89.37
2023-04-02T11:09:29.454Z,88.57
2023-04-02T11:12:02.578Z,89.30
2023-04-02T11:14:34.719Z,88.26
2023-04-02T11:17:05.246Z,88.87
2023-04-02T11:19:37.674Z,88.79
2023-04-02T11:22:27.173Z,88.95
2023-04-02T11:24:59.916Z,88.11
2023-04-02T11:27:33.159Z,88.69
2023-04-02T11:30:06.454Z,86.86
2023-04-02T11:33:03.896Z,88.30
2023-04-02T11:35:34.302Z,88.00
2023-04-02T11:38:21.318Z,87.91
2023-04-02T11:40:59.771Z,88.68
2023-04-02T11:43:36.566Z,88.31
2023-04-02T11:46:07.996Z,88.58
2023-04-02T11:48:38.563Z,87.33
2023-04-02T11:51:37.799Z,87.72
2023-04-02T11:54:29.771Z,87.84
2023-04-02T11:57:23.288Z,86.72
2023-04-02T12:00:20.771Z,85.51
2023-04-02T12:03:29.588Z,86.55
2023-04-02T12:06:14.574Z,86.29
2023-04-02T12:09:09.281Z,86.14
2023-04-02T12:11:42.034Z,85.90
2023-04-02T12:14:39.893Z,85.63
2023-04-02T12:17:37.864Z,84.79
2023-04-02T12:20:11.265Z,85.38
2023-04-02T12:22:48.222Z,85.03
2023-04-02T12:25:31.197Z,85.87
2023-04-02T12:28:15.648Z,84.80
2023-04-02T12:30:47.466Z,84.23
2023-04-02T12:33:38.429Z,84.85
2023-04-02T12:36:21.253Z,85.83
2023-04-02T12:38:57.331Z,84.86
2023-04-02T12:41:31.498Z,84.45
2023-04-02T12:44:07.670Z,83.54
2023-04-02T12:46:38.082Z,82.66
2023-04-02T12:49:28.385Z,82.45
2023-04-02T12:51:59.556Z,81.87
2023-04-02T12:54:30.660Z,80.56
2023-04-02T12:57:32.531Z,82.62
2023-04-02T13:00:24.140Z,81.83
2023-04-02T13:03:04.606Z,81.66
2023-04-02T13:05:43.776Z,81.08
2023-04-02T13:08:42.423Z,79.63
2023-04-02T13:11:12.958Z,80.29
2023-04-02T13:13:45.528Z,80.92
2023-04-02T13:16:21.679Z,81.21
2023-04-02T13:18:53.233Z,80.50
2023-04-02T13:21:30.492Z,80.85
2023-04-02T13:24:00.656Z,81.11
2023-04-02T13:26:31.384Z,81.50
2023-04-02T13:29:28.758Z,79.40
2023-04-02T13:32:04.607Z,79.81
2023-04-02T13:34:35.111Z,79.60
2023-04-02T13:37:05.246Z,79.95
2023-04-02T13:39:35.562Z,79.07
2023-04-02T13:42:07.813Z,78.53
2023-04-02T13:44:41.452Z,79.35
2023-04-02T13:47:16.141Z,78.20
2023-04-02T13:49:46.287Z,78.14
2023-04-02T13:52:17.591Z,77.39
2023-04-02T13:54:50.601Z,78.30
2023-04-02T13:57:21.013Z,78.12
2023-04-02T13:59:51.183Z,76.36
2023-04-02T14:02:25.973Z,74.83
2023-04-02T14:05:30.458Z,75.82
2023-04-02T14:08:42.087Z,75.61
2023-04-02T14:11:42.561Z,74.49
2023-04-02T14:14:21.137Z,72.94
2023-04-02T14:17:07.879Z,70.01
2023-04-02T14:19:48.218Z,72.83
2023-04-02T14:22:57.781Z,70.22
2023-04-02T14:25:45.448Z,64.63
2023-04-02T14:28:44.276Z,63.12
2023-04-02T14:31:47.473Z,62.44
2023-04-02T14:34:44.799Z,64.06
2023-04-02T14:37:18.357Z,63.48
2023-04-02T14:40:23.159Z,62.13
2023-04-02T14:42:53.355Z,63.68
2023-04-02T14:45:45.585Z,62.84
2023-04-02T14:48:46.012Z,63.34
2023-04-02T14:51:34.544Z,61.34
2023-04-02T14:54:22.540Z,62.66
2023-04-02T14:56:57.102Z,61.68
2023-04-02T14:59:41.602Z,61.79
2023-04-02T15:02:23.847Z,63.76
2023-04-02T15:05:29.335Z,66.83
2023-04-02T15:08:10.469Z,67.20
2023-04-02T15:11:08.228Z,68.17
2023-04-02T15:13:43.967Z,67.31
2023-04-02T15:16:23.779Z,66.09
2023-04-02T15:18:57.785Z,64.48
2023-04-02T15:24:37.207Z,62.93
2023-04-02T15:27:50.417Z,63.75
2023-04-02T15:30:30.625Z,62.65
2023-04-02T15:33:29.499Z,61.57
2023-04-02T15:36:12.209Z,60.00
2023-04-02T15:39:12.260Z,61.43
2023-04-02T15:42:12.298Z,60.78
2023-04-02T15:44:54.278Z,59.73
2023-04-02T15:47:36.879Z,59.69
2023-04-02T15:50:16.164Z,59.99
2023-04-02T15:53:02.596Z,61.23
2023-04-02T15:55:47.895Z,63.36
2023-04-02T15:58:26.879Z,63.32
2023-04-02T16:01:15.358Z,63.09
2023-04-02T16:04:31.871Z,63.14
2023-04-02T16:07:22.848Z,62.36
2023-04-02T16:10:06.377Z,61.93
2023-04-02T16:12:38.344Z,60.19
2023-04-02T16:15:26.148Z,61.04
2023-04-02T16:18:26.184Z,60.44
2023-04-02T16:20:58.438Z,58.07
2023-04-02T16:23:40.242Z,59.76
2023-04-02T16:26:31.452Z,60.49
2023-04-02T16:29:27.160Z,60.07
2023-04-02T16:32:21.158Z,59.37
2023-04-02T16:35:23.967Z,59.02
2023-04-02T16:38:22.021Z,59.20
2023-04-02T16:41:35.071Z,59.68
2023-04-02T16:44:17.654Z,57.73
2023-04-02T16:47:03.639Z,57.62
2023-04-02T16:49:40.115Z,55.72
2023-04-02T16:52:28.486Z,57.85
2023-04-02T16:55:06.886Z,58.72
2023-04-02T16:58:04.276Z,57.62
2023-04-02T17:00:46.824Z,57.36
2023-04-02T17:03:45.254Z,57.49
2023-04-02T17:06:27.760Z,57.68
2023-04-02T17:09:12.672Z,54.98
2023-04-02T17:11:47.263Z,54.98
2023-04-02T17:14:35.471Z,57.90
2023-04-02T17:17:07.125Z,56.80
2023-04-02T17:19:37.268Z,53.18
2023-04-02T17:22:07.875Z,54.56
2023-04-02T17:24:43.177Z,54.87
2023-04-02T17:27:47.474Z,54.97
2023-04-02T17:30:38.994Z,54.29
2023-04-02T17:33:18.041Z,55.24
2023-04-02T17:36:02.245Z,55.98
2023-04-02T17:39:05.799Z,54.52
2023-04-02T17:41:50.097Z,51.26
2023-04-02T17:44:50.084Z,50.55
2023-04-02T17:47:27.155Z,50.30
2023-04-02T17:50:15.706Z,50.63
2023-04-02T17:53:00.320Z,49.65
2023-04-02T17:55:48.564Z,48.76
2023-04-02T17:58:30.934Z,48.85
2023-04-02T18:01:24.858Z,46.59
2023-04-02T18:04:16.335Z,46.09
2023-04-02T18:06:52.363Z,44.46
2023-04-02T18:09:51.120Z,46.08
2023-04-02T18:12:36.224Z,44.40
2023-04-02T18:15:30.761Z,43.79
2023-04-02T18:18:44.697Z,44.50
2023-04-02T18:21:27.444Z,47.77
2023-04-02T18:24:18.628Z,50.35
2023-04-02T18:27:15.602Z,52.98
2023-04-02T18:29:58.708Z,52.60
2023-04-02T18:32:51.865Z,50.43
2023-04-02T18:35:40.457Z,48.28
2023-04-02T18:38:48.837Z,48.45
2023-04-02T18:41:49.284Z,44.35
2023-04-02T18:44:37.599Z,43.79
2023-04-02T18:47:27.869Z,45.55
2023-04-02T18:50:19.902Z,46.92
2023-04-02T18:52:52.017Z,49.17
2023-04-02T18:55:28.090Z,46.84
2023-04-02T18:58:14.666Z,49.13
2023-04-02T19:00:47.144Z,45.54
2023-04-02T19:03:21.224Z,45.19
2023-04-02T19:06:17.556Z,47.19
2023-04-02T19:09:00.193Z,44.64
2023-04-02T19:11:30.670Z,48.17
2023-04-02T19:14:21.717Z,47.96
2023-04-02T19:17:06.397Z,47.54
2023-04-02T19:19:57.900Z,46.57
2023-04-02T19:23:06.466Z,46.19
2023-04-02T19:25:52.289Z,51.01
2023-04-02T19:28:38.393Z,52.15
2023-04-02T19:31:31.218Z,53.30
2023-04-02T19:34:24.656Z,53.89
2023-04-02T19:37:08.284Z,53.93
2023-04-02T19:39:57.058Z,53.91
2023-04-02T19:42:54.335Z,55.94
2023-04-02T19:45:37.455Z,54.36
2023-04-02T19:48:30.035Z,55.47
2023-04-02T19:51:01.326Z,55.61
2023-04-02T19:53:32.070Z,57.60
2023-04-02T19:56:03.376Z,58.42
2023-04-02T19:58:37.068Z,58.31
2023-04-02T20:01:08.214Z,57.95
2023-04-02T20:03:39.095Z,58.33
2023-04-02T20:06:10.447Z,58.26
2023-04-02T20:08:41.837Z,59.78
2023-04-02T20:11:13.099Z,58.80
2023-04-02T20:13:43.913Z,59.80
2023-04-02T20:16:15.558Z,61.36
2023-04-02T20:18:46.217Z,62.29
2023-04-02T20:21:18.399Z,63.21
2023-04-02T20:23:49.490Z,62.56
2023-04-02T20:26:20.223Z,63.14
2023-04-02T20:28:51.133Z,63.24
2023-04-02T20:31:22.156Z,63.65
2023-04-02T20:33:58.450Z,63.36
2023-04-02T20:36:29.573Z,62.48
2023-04-02T20:39:00.269Z,62.89
2023-04-02T20:41:31.017Z,64.06
2023-04-02T20:44:02.302Z,63.68
2023-04-02T20:46:36.882Z,63.78
2023-04-02T20:49:08.214Z,64.10
2023-04-02T20:51:38.891Z,64.63
2023-04-02T20:54:09.775Z,65.17
2023-04-02T20:56:41.533Z,65.97
2023-04-02T20:59:12.809Z,65.84
2023-04-02T21:01:45.413Z,67.19
2023-04-02T21:04:16.228Z,67.58
2023-04-02T21:06:50.665Z,67.76
2023-04-02T21:09:22.884Z,68.87
2023-04-02T21:11:53.453Z,68.21
2023-04-02T21:14:23.850Z,68.97
2023-04-02T21:16:54.189Z,68.84
2023-04-02T21:19:24.349Z,68.40
2023-04-02T21:21:56.669Z,68.78
2023-04-02T21:24:27.094Z,68.51
2023-04-02T21:26:57.195Z,69.10
2023-04-02T21:29:27.039Z,69.03
2023-04-02T21:31:58.479Z,69.67
2023-04-02T21:34:30.282Z,69.88
2023-04-02T21:37:00.866Z,69.88
2023-04-02T21:39:31.051Z,70.51
2023-04-02T21:42:01.432Z,70.51
2023-04-02T21:44:31.904Z,70.93
2023-04-02T21:47:03.268Z,71.03
2023-04-02T21:49:33.513Z,71.51
2023-04-02T21:52:03.697Z,71.49
2023-04-02T21:54:33.881Z,71.86
2023-04-02T21:57:06.477Z,72.15
2023-04-02T21:59:36.777Z,72.41
2023-04-02T22:02:08.011Z,72.43
2023-04-02T22:04:38.175Z,72.53
2023-04-02T22:07:07.785Z,72.36
2023-04-02T22:09:37.489Z,73.36
2023-04-02T22:12:09.305Z,73.39
2023-04-02T22:14:39.530Z,73.28
2023-04-02T22:17:10.018Z,73.82
2023-04-02T22:19:40.182Z,74.03
2023-04-02T22:22:10.057Z,73.68
2023-04-02T22:24:40.078Z,74.56
2023-04-02T22:27:10.241Z,75.10
2023-04-02T22:29:39.827Z,74.12
2023-04-02T22:32:09.645Z,75.21
2023-04-02T22:34:46.978Z,75.13
2023-04-02T22:37:17.802Z,75.88
2023-04-02T22:39:47.418Z,74.92
2023-04-02T22:42:17.843Z,76.36
2023-04-02T22:44:48.008Z,76.53
2023-04-02T22:47:18.392Z,76.01
2023-04-02T22:49:48.425Z,76.70
2023-04-02T22:52:18.509Z,77.02
2023-04-02T22:54:48.721Z,77.64
2023-04-02T22:57:18.870Z,77.49
2023-04-02T22:59:48.613Z,76.68
2023-04-02T23:02:18.488Z,77.76
2023-04-02T23:04:48.097Z,77.05
2023-04-02T23:07:19.174Z,77.78
2023-04-02T23:09:53.243Z,77.67
2023-04-02T23:12:24.728Z,77.96
2023-04-02T23:14:59.821Z,77.74
2023-04-02T23:17:31.428Z,77.85
2023-04-02T23:20:02.690Z,77.93
2023-04-02T23:22:34.425Z,77.95
2023-04-02T23:25:08.391Z,78.33
2023-04-02T23:27:39.392Z,77.91
2023-04-02T23:30:11.516Z,78.36
2023-04-02T23:32:43.433Z,77.87
2023-04-02T23:35:14.580Z,78.61
2023-04-02T23:37:47.562Z,78.25
2023-04-02T23:40:19.144Z,79.06
2023-04-02T23:42:49.482Z,79.38
2023-04-02T23:45:19.652Z,79.21
2023-04-02T23:47:49.477Z,77.80
2023-04-02T23:50:19.528Z,79.17
2023-04-02T23:52:49.818Z,79.47
2023-04-02T23:55:19.761Z,80.29
2023-04-02T23:57:49.710Z,79.38
